Pike, New Hampshire
Current Conditions -  °F | °C
As of 12:55 AM on Tuesday 27 Jan 2015 (Local Time) from K1P1 Reporting Station
Overcast Overcast  
Wind Chill: 18°   Ceiling: 8000
Heat Index: 18°   Visibility: 10mi
Dew Point: -5°   Wind: 0mph
Humidity: 36%   Direction: NA
Pressure: 29.93"   Gusts: NA
Location:  44.03°N, 72.01°W
Report Text: K1P1 270555Z AUTO 00000KT 10SM OVC080 M08/M21 A2993 RMK AO2 T10791207 11073 21083
Loading
Personal Weather Stations






























Interactive Weather Map New forecast layout! Learn more

10-Day Weather Forecast

Advertisements
Track Severe Weather on mobile